sensor_id;sensor_type;location;lat;lon;timestamp;temperature;humidity
11399;DHT22;5755;48.116;11.608;2023-12-20T00:02:23;6.60;29.60
11399;DHT22;5755;48.116;11.608;2023-12-20T00:04:50;6.60;30.30
11399;DHT22;5755;48.116;11.608;2023-12-20T00:07:16;6.60;31.00
11399;DHT22;5755;48.116;11.608;2023-12-20T00:09:43;6.60;31.10
11399;DHT22;5755;48.116;11.608;2023-12-20T00:12:11;6.70;31.30
11399;DHT22;5755;48.116;11.608;2023-12-20T00:14:38;6.70;30.90
11399;DHT22;5755;48.116;11.608;2023-12-20T00:17:05;6.60;31.30
11399;DHT22;5755;48.116;11.608;2023-12-20T00:19:33;6.50;31.40
11399;DHT22;5755;48.116;11.608;2023-12-20T00:22:00;6.60;31.20
11399;DHT22;5755;48.116;11.608;2023-12-20T00:24:27;6.70;31.30
11399;DHT22;5755;48.116;11.608;2023-12-20T00:26:54;6.60;32.10
11399;DHT22;5755;48.116;11.608;2023-12-20T00:29:22;6.60;32.90
11399;DHT22;5755;48.116;11.608;2023-12-20T00:31:49;6.60;33.20
11399;DHT22;5755;48.116;11.608;2023-12-20T00:34:15;6.60;32.90
11399;DHT22;5755;48.116;11.608;2023-12-20T00:36:43;6.70;33.50
11399;DHT22;5755;48.116;11.608;2023-12-20T00:39:09;6.70;32.50
11399;DHT22;5755;48.116;11.608;2023-12-20T00:41:36;6.70;31.30
11399;DHT22;5755;48.116;11.608;2023-12-20T00:44:04;6.70;30.90
11399;DHT22;5755;48.116;11.608;2023-12-20T00:46:32;6.80;29.30
11399;DHT22;5755;48.116;11.608;2023-12-20T00:48:59;6.90;28.90
11399;DHT22;5755;48.116;11.608;2023-12-20T00:51:26;7.00;27.70
11399;DHT22;5755;48.116;11.608;2023-12-20T00:53:53;7.10;27.10
11399;DHT22;5755;48.116;11.608;2023-12-20T00:56:20;7.10;26.10
11399;DHT22;5755;48.116;11.608;2023-12-20T00:58:47;7.10;25.40
11399;DHT22;5755;48.116;11.608;2023-12-20T01:01:14;7.20;23.10
11399;DHT22;5755;48.116;11.608;2023-12-20T01:03:43;7.40;24.00
11399;DHT22;5755;48.116;11.608;2023-12-20T01:06:10;7.30;23.20
11399;DHT22;5755;48.116;11.608;2023-12-20T01:08:37;7.30;23.10
11399;DHT22;5755;48.116;11.608;2023-12-20T01:11:04;7.30;23.10
11399;DHT22;5755;48.116;11.608;2023-12-20T01:13:31;7.30;23.10
11399;DHT22;5755;48.116;11.608;2023-12-20T01:15:58;7.30;23.40
11399;DHT22;5755;48.116;11.608;2023-12-20T01:18:24;7.40;24.00
11399;DHT22;5755;48.116;11.608;2023-12-20T01:20:53;7.30;24.20
11399;DHT22;5755;48.116;11.608;2023-12-20T01:23:20;7.40;23.90
11399;DHT22;5755;48.116;11.608;2023-12-20T01:25:46;7.40;24.40
11399;DHT22;5755;48.116;11.608;2023-12-20T01:28:13;7.30;25.30
11399;DHT22;5755;48.116;11.608;2023-12-20T01:30:41;7.30;25.50
11399;DHT22;5755;48.116;11.608;2023-12-20T01:33:08;7.30;26.30
11399;DHT22;5755;48.116;11.608;2023-12-20T01:35:35;7.20;27.00
11399;DHT22;5755;48.116;11.608;2023-12-20T01:38:04;7.30;27.40
11399;DHT22;5755;48.116;11.608;2023-12-20T01:40:31;7.30;27.90
11399;DHT22;5755;48.116;11.608;2023-12-20T01:42:58;7.30;28.10
11399;DHT22;5755;48.116;11.608;2023-12-20T01:45:26;7.30;27.80
11399;DHT22;5755;48.116;11.608;2023-12-20T01:47:53;7.30;28.40
11399;DHT22;5755;48.116;11.608;2023-12-20T01:50:20;7.30;28.00
11399;DHT22;5755;48.116;11.608;2023-12-20T01:52:48;7.30;27.90
11399;DHT22;5755;48.116;11.608;2023-12-20T01:55:19;7.30;28.30
11399;DHT22;5755;48.116;11.608;2023-12-20T01:57:47;7.20;28.70
11399;DHT22;5755;48.116;11.608;2023-12-20T02:00:15;7.20;28.30
11399;DHT22;5755;48.116;11.608;2023-12-20T02:02:43;7.30;27.30
11399;DHT22;5755;48.116;11.608;2023-12-20T02:05:11;7.40;28.30
11399;DHT22;5755;48.116;11.608;2023-12-20T02:07:38;7.40;27.90
11399;DHT22;5755;48.116;11.608;2023-12-20T02:10:06;7.40;27.80
11399;DHT22;5755;48.116;11.608;2023-12-20T02:12:34;7.40;28.00
11399;DHT22;5755;48.116;11.608;2023-12-20T02:15:01;7.40;27.80
11399;DHT22;5755;48.116;11.608;2023-12-20T02:17:29;7.40;27.80
11399;DHT22;5755;48.116;11.608;2023-12-20T02:19:56;7.40;27.80
11399;DHT22;5755;48.116;11.608;2023-12-20T02:22:24;7.30;28.30
11399;DHT22;5755;48.116;11.608;2023-12-20T02:24:51;7.40;28.70
11399;DHT22;5755;48.116;11.608;2023-12-20T02:27:19;7.40;28.90
11399;DHT22;5755;48.116;11.608;2023-12-20T02:29:47;7.30;28.60
11399;DHT22;5755;48.116;11.608;2023-12-20T02:32:14;7.40;28.30
11399;DHT22;5755;48.116;11.608;2023-12-20T02:34:41;7.50;28.40
11399;DHT22;5755;48.116;11.608;2023-12-20T02:37:08;7.60;28.50
11399;DHT22;5755;48.116;11.608;2023-12-20T02:39:36;7.60;28.00
11399;DHT22;5755;48.116;11.608;2023-12-20T02:42:03;7.70;27.80
11399;DHT22;5755;48.116;11.608;2023-12-20T02:44:30;7.60;28.60
11399;DHT22;5755;48.116;11.608;2023-12-20T02:46:57;7.70;29.00
11399;DHT22;5755;48.116;11.608;2023-12-20T02:49:24;7.70;29.10
11399;DHT22;5755;48.116;11.608;2023-12-20T02:51:51;7.70;29.10
11399;DHT22;5755;48.116;11.608;2023-12-20T02:54:18;7.70;29.30
11399;DHT22;5755;48.116;11.608;2023-12-20T02:56:46;7.70;29.80
11399;DHT22;5755;48.116;11.608;2023-12-20T02:59:13;7.70;29.80
11399;DHT22;5755;48.116;11.608;2023-12-20T03:01:42;7.70;29.50
11399;DHT22;5755;48.116;11.608;2023-12-20T03:04:09;7.70;29.60
11399;DHT22;5755;48.116;11.608;2023-12-20T03:06:36;7.70;30.00
11399;DHT22;5755;48.116;11.608;2023-12-20T03:09:03;7.70;30.80
11399;DHT22;5755;48.116;11.608;2023-12-20T03:11:30;7.60;31.40
11399;DHT22;5755;48.116;11.608;2023-12-20T03:13:58;7.60;31.80
11399;DHT22;5755;48.116;11.608;2023-12-20T03:16:25;7.50;33.60
11399;DHT22;5755;48.116;11.608;2023-12-20T03:18:52;7.60;33.90
11399;DHT22;5755;48.116;11.608;2023-12-20T03:21:19;7.50;35.30
11399;DHT22;5755;48.116;11.608;2023-12-20T03:23:46;7.60;35.80
11399;DHT22;5755;48.116;11.608;2023-12-20T03:26:12;7.60;36.40
11399;DHT22;5755;48.116;11.608;2023-12-20T03:28:39;7.60;37.60
11399;DHT22;5755;48.116;11.608;2023-12-20T03:31:09;7.60;40.90
11399;DHT22;5755;48.116;11.608;2023-12-20T03:33:36;7.60;43.30
11399;DHT22;5755;48.116;11.608;2023-12-20T03:36:03;7.70;44.70
11399;DHT22;5755;48.116;11.608;2023-12-20T03:38:30;7.60;46.40
11399;DHT22;5755;48.116;11.608;2023-12-20T03:40:57;7.70;49.40
11399;DHT22;5755;48.116;11.608;2023-12-20T03:43:24;7.70;51.80
11399;DHT22;5755;48.116;11.608;2023-12-20T03:45:51;7.60;51.80
11399;DHT22;5755;48.116;11.608;2023-12-20T03:48:19;7.70;53.50
11399;DHT22;5755;48.116;11.608;2023-12-20T03:50:46;7.80;53.80
11399;DHT22;5755;48.116;11.608;2023-12-20T03:53:13;7.70;57.10
11399;DHT22;5755;48.116;11.608;2023-12-20T03:55:41;7.70;59.90
11399;DHT22;5755;48.116;11.608;2023-12-20T03:58:08;7.70;63.80
11399;DHT22;5755;48.116;11.608;2023-12-20T04:00:35;7.60;66.70
11399;DHT22;5755;48.116;11.608;2023-12-20T04:03:01;7.70;72.60
11399;DHT22;5755;48.116;11.608;2023-12-20T04:05:30;7.60;75.10
11399;DHT22;5755;48.116;11.608;2023-12-20T04:07:56;7.60;78.30
11399;DHT22;5755;48.116;11.608;2023-12-20T04:10:24;7.60;79.90
11399;DHT22;5755;48.116;11.608;2023-12-20T04:12:50;7.60;82.60
11399;DHT22;5755;48.116;11.608;2023-12-20T04:15:17;7.60;85.60
11399;DHT22;5755;48.116;11.608;2023-12-20T04:17:44;7.50;88.70
11399;DHT22;5755;48.116;11.608;2023-12-20T04:20:11;7.50;90.10
11399;DHT22;5755;48.116;11.608;2023-12-20T04:22:39;7.40;90.90
11399;DHT22;5755;48.116;11.608;2023-12-20T04:25:06;7.30;91.60
11399;DHT22;5755;48.116;11.608;2023-12-20T04:27:33;7.30;91.90
11399;DHT22;5755;48.116;11.608;2023-12-20T04:30:00;7.30;92.20
11399;DHT22;5755;48.116;11.608;2023-12-20T04:32:27;7.30;92.40
11399;DHT22;5755;48.116;11.608;2023-12-20T04:34:54;7.30;92.90
11399;DHT22;5755;48.116;11.608;2023-12-20T04:37:20;7.20;93.10
11399;DHT22;5755;48.116;11.608;2023-12-20T04:39:49;7.10;93.50
11399;DHT22;5755;48.116;11.608;2023-12-20T04:42:15;7.10;93.60
11399;DHT22;5755;48.116;11.608;2023-12-20T04:44:42;7.10;93.90
11399;DHT22;5755;48.116;11.608;2023-12-20T04:47:10;7.10;94.10
11399;DHT22;5755;48.116;11.608;2023-12-20T04:49:37;7.00;94.20
11399;DHT22;5755;48.116;11.608;2023-12-20T04:52:04;7.00;94.50
11399;DHT22;5755;48.116;11.608;2023-12-20T04:54:31;7.00;94.80
11399;DHT22;5755;48.116;11.608;2023-12-20T04:56:59;7.00;95.00
11399;DHT22;5755;48.116;11.608;2023-12-20T04:59:26;7.00;95.50
11399;DHT22;5755;48.116;11.608;2023-12-20T05:01:53;7.00;95.50
11399;DHT22;5755;48.116;11.608;2023-12-20T05:04:20;7.00;95.50
11399;DHT22;5755;48.116;11.608;2023-12-20T05:06:47;7.00;95.50
11399;DHT22;5755;48.116;11.608;2023-12-20T05:09:15;6.90;96.40
11399;DHT22;5755;48.116;11.608;2023-12-20T05:11:42;6.90;96.80
11399;DHT22;5755;48.116;11.608;2023-12-20T05:14:10;6.80;97.30
11399;DHT22;5755;48.116;11.608;2023-12-20T05:16:37;6.70;98.00
11399;DHT22;5755;48.116;11.608;2023-12-20T05:19:04;6.80;98.40
11399;DHT22;5755;48.116;11.608;2023-12-20T05:21:32;6.60;98.80
11399;DHT22;5755;48.116;11.608;2023-12-20T05:23:59;6.60;99.40
11399;DHT22;5755;48.116;11.608;2023-12-20T05:26:26;6.50;99.90
11399;DHT22;5755;48.116;11.608;2023-12-20T05:28:54;6.40;99.90
11399;DHT22;5755;48.116;11.608;2023-12-20T05:31:22;6.40;99.90
11399;DHT22;5755;48.116;11.608;2023-12-20T05:33:49;6.30;99.90
11399;DHT22;5755;48.116;11.608;2023-12-20T05:36:16;6.30;99.90
11399;DHT22;5755;48.116;11.608;2023-12-20T05:38:43;6.30;99.90
11399;DHT22;5755;48.116;11.608;2023-12-20T05:41:10;6.30;99.90
11399;DHT22;5755;48.116;11.608;2023-12-20T05:43:36;6.20;99.90
11399;DHT22;5755;48.116;11.608;2023-12-20T05:46:03;6.10;99.90
11399;DHT22;5755;48.116;11.608;2023-12-20T05:48:31;6.20;99.90
11399;DHT22;5755;48.116;11.608;2023-12-20T05:50:58;6.00;99.90
11399;DHT22;5755;48.116;11.608;2023-12-20T05:53:25;6.00;99.90
11399;DHT22;5755;48.116;11.608;2023-12-20T05:55:52;6.00;99.90
11399;DHT22;5755;48.116;11.608;2023-12-20T05:58:19;6.00;99.90
11399;DHT22;5755;48.116;11.608;2023-12-20T06:00:46;5.90;99.90
11399;DHT22;5755;48.116;11.608;2023-12-20T06:03:14;5.90;99.90
11399;DHT22;5755;48.116;11.608;2023-12-20T06:05:42;5.90;99.90
11399;DHT22;5755;48.116;11.608;2023-12-20T06:08:09;5.80;99.90
11399;DHT22;5755;48.116;11.608;2023-12-20T06:10:36;5.80;99.90
11399;DHT22;5755;48.116;11.608;2023-12-20T06:13:03;5.80;99.90
11399;DHT22;5755;48.116;11.608;2023-12-20T06:15:30;5.80;99.90
11399;DHT22;5755;48.116;11.608;2023-12-20T06:17:57;5.80;99.90
11399;DHT22;5755;48.116;11.608;2023-12-20T06:20:24;5.80;99.90
11399;DHT22;5755;48.116;11.608;2023-12-20T06:22:52;5.70;99.90
11399;DHT22;5755;48.116;11.608;2023-12-20T06:25:19;5.70;99.90
11399;DHT22;5755;48.116;11.608;2023-12-20T06:27:45;5.60;99.90
11399;DHT22;5755;48.116;11.608;2023-12-20T06:30:12;5.60;99.90
11399;DHT22;5755;48.116;11.608;2023-12-20T06:32:39;5.50;99.90
11399;DHT22;5755;48.116;11.608;2023-12-20T06:35:09;5.50;99.90
11399;DHT22;5755;48.116;11.608;2023-12-20T06:37:36;5.50;99.90
11399;DHT22;5755;48.116;11.608;2023-12-20T06:40:05;5.50;99.90
11399;DHT22;5755;48.116;11.608;2023-12-20T06:42:32;5.40;99.90
11399;DHT22;5755;48.116;11.608;2023-12-20T06:44:59;5.30;99.90
11399;DHT22;5755;48.116;11.608;2023-12-20T06:47:26;5.30;99.90
11399;DHT22;5755;48.116;11.608;2023-12-20T06:49:53;5.30;99.90
11399;DHT22;5755;48.116;11.608;2023-12-20T06:52:20;5.30;99.90
11399;DHT22;5755;48.116;11.608;2023-12-20T06:54:46;5.30;99.90
11399;DHT22;5755;48.116;11.608;2023-12-20T06:57:20;5.20;99.90
11399;DHT22;5755;48.116;11.608;2023-12-20T06:59:46;5.10;99.90
11399;DHT22;5755;48.116;11.608;2023-12-20T07:02:13;5.10;99.90
11399;DHT22;5755;48.116;11.608;2023-12-20T07:04:41;5.00;99.90
11399;DHT22;5755;48.116;11.608;2023-12-20T07:07:07;5.10;99.90
11399;DHT22;5755;48.116;11.608;2023-12-20T07:09:34;5.00;99.90
11399;DHT22;5755;48.116;11.608;2023-12-20T07:12:01;5.00;99.90
11399;DHT22;5755;48.116;11.608;2023-12-20T07:14:30;5.00;99.90
11399;DHT22;5755;48.116;11.608;2023-12-20T07:16:56;5.00;99.90
11399;DHT22;5755;48.116;11.608;2023-12-20T07:19:23;5.10;99.90
11399;DHT22;5755;48.116;11.608;2023-12-20T07:21:50;5.10;99.90
11399;DHT22;5755;48.116;11.608;2023-12-20T07:24:17;5.00;99.90
11399;DHT22;5755;48.116;11.608;2023-12-20T07:26:44;5.00;99.90
11399;DHT22;5755;48.116;11.608;2023-12-20T07:29:11;5.10;99.90
11399;DHT22;5755;48.116;11.608;2023-12-20T07:31:39;5.00;99.90
11399;DHT22;5755;48.116;11.608;2023-12-20T07:34:06;5.10;99.90
11399;DHT22;5755;48.116;11.608;2023-12-20T07:36:32;5.10;99.90
11399;DHT22;5755;48.116;11.608;2023-12-20T07:38:59;5.10;99.90
11399;DHT22;5755;48.116;11.608;2023-12-20T07:41:26;5.20;99.90
11399;DHT22;5755;48.116;11.608;2023-12-20T07:43:53;5.20;99.90
11399;DHT22;5755;48.116;11.608;2023-12-20T07:46:21;5.20;99.90
11399;DHT22;5755;48.116;11.608;2023-12-20T07:48:50;5.20;99.90
11399;DHT22;5755;48.116;11.608;2023-12-20T07:51:17;5.20;99.90
11399;DHT22;5755;48.116;11.608;2023-12-20T07:53:46;5.30;99.90
11399;DHT22;5755;48.116;11.608;2023-12-20T07:56:14;5.40;99.90
11399;DHT22;5755;48.116;11.608;2023-12-20T07:58:41;5.30;99.90
11399;DHT22;5755;48.116;11.608;2023-12-20T08:01:08;5.40;99.90
11399;DHT22;5755;48.116;11.608;2023-12-20T08:03:36;5.40;99.90
11399;DHT22;5755;48.116;11.608;2023-12-20T08:06:04;5.40;99.90
11399;DHT22;5755;48.116;11.608;2023-12-20T08:08:31;5.30;99.90
11399;DHT22;5755;48.116;11.608;2023-12-20T08:10:58;5.40;99.90
11399;DHT22;5755;48.116;11.608;2023-12-20T08:13:26;5.40;99.90
11399;DHT22;5755;48.116;11.608;2023-12-20T08:15:53;5.40;99.90
11399;DHT22;5755;48.116;11.608;2023-12-20T08:18:21;5.50;99.90
11399;DHT22;5755;48.116;11.608;2023-12-20T08:20:48;5.60;99.90
11399;DHT22;5755;48.116;11.608;2023-12-20T08:23:16;5.60;99.90
11399;DHT22;5755;48.116;11.608;2023-12-20T08:25:43;5.60;99.90
11399;DHT22;5755;48.116;11.608;2023-12-20T08:28:10;5.40;99.90
11399;DHT22;5755;48.116;11.608;2023-12-20T08:30:37;5.30;99.90
11399;DHT22;5755;48.116;11.608;2023-12-20T08:33:04;5.20;99.90
11399;DHT22;5755;48.116;11.608;2023-12-20T08:35:33;5.10;99.90
11399;DHT22;5755;48.116;11.608;2023-12-20T08:38:00;5.20;99.90
11399;DHT22;5755;48.116;11.608;2023-12-20T08:40:28;5.10;99.90
11399;DHT22;5755;48.116;11.608;2023-12-20T08:42:55;5.00;99.90
11399;DHT22;5755;48.116;11.608;2023-12-20T08:45:20;5.00;99.90
11399;DHT22;5755;48.116;11.608;2023-12-20T08:47:47;5.00;99.90
11399;DHT22;5755;48.116;11.608;2023-12-20T08:50:14;5.00;99.90
11399;DHT22;5755;48.116;11.608;2023-12-20T08:52:41;5.10;99.90
11399;DHT22;5755;48.116;11.608;2023-12-20T08:55:08;5.10;99.90
11399;DHT22;5755;48.116;11.608;2023-12-20T08:57:37;5.20;99.90
11399;DHT22;5755;48.116;11.608;2023-12-20T09:00:05;5.20;99.90
11399;DHT22;5755;48.116;11.608;2023-12-20T09:02:33;5.20;99.90
11399;DHT22;5755;48.116;11.608;2023-12-20T09:05:01;5.20;99.90
11399;DHT22;5755;48.116;11.608;2023-12-20T09:07:28;5.20;99.90
11399;DHT22;5755;48.116;11.608;2023-12-20T09:09:57;5.20;99.90
11399;DHT22;5755;48.116;11.608;2023-12-20T09:12:24;5.20;99.90
11399;DHT22;5755;48.116;11.608;2023-12-20T09:14:52;5.40;99.90
11399;DHT22;5755;48.116;11.608;2023-12-20T09:17:19;5.50;99.90
11399;DHT22;5755;48.116;11.608;2023-12-20T09:19:48;5.50;99.90
11399;DHT22;5755;48.116;11.608;2023-12-20T09:22:15;5.60;99.90
11399;DHT22;5755;48.116;11.608;2023-12-20T09:24:43;5.60;99.90
11399;DHT22;5755;48.116;11.608;2023-12-20T09:27:10;5.70;99.90
11399;DHT22;5755;48.116;11.608;2023-12-20T09:29:37;5.60;99.90
11399;DHT22;5755;48.116;11.608;2023-12-20T09:32:06;5.80;99.90
11399;DHT22;5755;48.116;11.608;2023-12-20T09:34:33;5.80;99.90
11399;DHT22;5755;48.116;11.608;2023-12-20T09:37:00;5.80;99.90
11399;DHT22;5755;48.116;11.608;2023-12-20T09:39:28;5.80;99.90
11399;DHT22;5755;48.116;11.608;2023-12-20T09:42:00;5.70;99.90
11399;DHT22;5755;48.116;11.608;2023-12-20T09:44:28;5.80;99.90
11399;DHT22;5755;48.116;11.608;2023-12-20T09:46:56;5.70;99.90
11399;DHT22;5755;48.116;11.608;2023-12-20T09:49:25;5.60;99.90
11399;DHT22;5755;48.116;11.608;2023-12-20T09:51:54;5.70;99.90
11399;DHT22;5755;48.116;11.608;2023-12-20T09:54:21;5.60;99.90
11399;DHT22;5755;48.116;11.608;2023-12-20T09:56:48;5.60;99.90
11399;DHT22;5755;48.116;11.608;2023-12-20T09:59:15;5.60;99.90
11399;DHT22;5755;48.116;11.608;2023-12-20T10:01:44;5.70;99.90
11399;DHT22;5755;48.116;11.608;2023-12-20T10:04:12;5.60;99.90
11399;DHT22;5755;48.116;11.608;2023-12-20T10:06:42;5.70;99.90
11399;DHT22;5755;48.116;11.608;2023-12-20T10:09:09;5.80;99.90
11399;DHT22;5755;48.116;11.608;2023-12-20T10:11:36;5.90;99.90
11399;DHT22;5755;48.116;11.608;2023-12-20T10:14:04;5.90;99.90
11399;DHT22;5755;48.116;11.608;2023-12-20T10:16:32;6.00;99.90
11399;DHT22;5755;48.116;11.608;2023-12-20T10:19:00;6.10;99.90
11399;DHT22;5755;48.116;11.608;2023-12-20T10:21:28;6.20;99.90
11399;DHT22;5755;48.116;11.608;2023-12-20T10:23:57;6.30;99.90
11399;DHT22;5755;48.116;11.608;2023-12-20T10:26:25;6.30;99.90
11399;DHT22;5755;48.116;11.608;2023-12-20T10:28:54;6.30;99.90
11399;DHT22;5755;48.116;11.608;2023-12-20T10:31:28;6.40;99.90
11399;DHT22;5755;48.116;11.608;2023-12-20T10:33:56;6.40;99.90
11399;DHT22;5755;48.116;11.608;2023-12-20T10:36:25;6.40;99.90
11399;DHT22;5755;48.116;11.608;2023-12-20T10:38:54;6.30;99.90
11399;DHT22;5755;48.116;11.608;2023-12-20T10:41:25;6.40;99.90
11399;DHT22;5755;48.116;11.608;2023-12-20T10:43:54;6.30;99.90
11399;DHT22;5755;48.116;11.608;2023-12-20T10:46:22;6.30;99.90
11399;DHT22;5755;48.116;11.608;2023-12-20T10:48:53;6.30;99.90
11399;DHT22;5755;48.116;11.608;2023-12-20T10:51:21;6.40;99.90
11399;DHT22;5755;48.116;11.608;2023-12-20T10:53:49;6.40;99.90
11399;DHT22;5755;48.116;11.608;2023-12-20T10:56:17;6.50;99.90
11399;DHT22;5755;48.116;11.608;2023-12-20T10:58:47;6.50;99.90
11399;DHT22;5755;48.116;11.608;2023-12-20T11:01:14;6.60;99.90
11399;DHT22;5755;48.116;11.608;2023-12-20T11:03:44;6.60;99.90
11399;DHT22;5755;48.116;11.608;2023-12-20T11:06:26;6.50;99.90
11399;DHT22;5755;48.116;11.608;2023-12-20T11:09:01;6.50;99.90
11399;DHT22;5755;48.116;11.608;2023-12-20T11:11:40;6.50;99.90
11399;DHT22;5755;48.116;11.608;2023-12-20T11:14:15;6.50;99.90
11399;DHT22;5755;48.116;11.608;2023-12-20T11:16:43;6.40;99.90
11399;DHT22;5755;48.116;11.608;2023-12-20T11:19:11;6.50;99.90
11399;DHT22;5755;48.116;11.608;2023-12-20T11:21:40;6.40;99.90
11399;DHT22;5755;48.116;11.608;2023-12-20T11:24:07;6.50;99.90
11399;DHT22;5755;48.116;11.608;2023-12-20T11:26:34;6.30;99.90
11399;DHT22;5755;48.116;11.608;2023-12-20T11:29:30;6.30;99.90
11399;DHT22;5755;48.116;11.608;2023-12-20T11:31:59;6.20;99.90
11399;DHT22;5755;48.116;11.608;2023-12-20T11:34:27;6.20;99.90
11399;DHT22;5755;48.116;11.608;2023-12-20T11:36:57;6.30;99.90
11399;DHT22;5755;48.116;11.608;2023-12-20T11:39:26;6.40;99.90
11399;DHT22;5755;48.116;11.608;2023-12-20T11:41:55;6.40;99.90
11399;DHT22;5755;48.116;11.608;2023-12-20T11:44:22;6.40;99.90
11399;DHT22;5755;48.116;11.608;2023-12-20T11:46:51;6.50;99.90
11399;DHT22;5755;48.116;11.608;2023-12-20T11:49:23;6.50;99.90
11399;DHT22;5755;48.116;11.608;2023-12-20T11:51:50;6.60;99.90
11399;DHT22;5755;48.116;11.608;2023-12-20T11:54:17;6.60;99.90
11399;DHT22;5755;48.116;11.608;2023-12-20T11:56:43;6.70;99.90
11399;DHT22;5755;48.116;11.608;2023-12-20T11:59:10;6.80;99.90
11399;DHT22;5755;48.116;11.608;2023-12-20T12:01:38;6.70;99.90
11399;DHT22;5755;48.116;11.608;2023-12-20T12:04:06;6.80;99.90
11399;DHT22;5755;48.116;11.608;2023-12-20T12:06:34;6.90;99.90
11399;DHT22;5755;48.116;11.608;2023-12-20T12:09:01;7.00;99.90
11399;DHT22;5755;48.116;11.608;2023-12-20T12:11:29;7.00;99.90
11399;DHT22;5755;48.116;11.608;2023-12-20T12:13:57;6.90;99.90
11399;DHT22;5755;48.116;11.608;2023-12-20T12:16:23;6.90;99.90
11399;DHT22;5755;48.116;11.608;2023-12-20T12:18:57;7.00;99.50
11399;DHT22;5755;48.116;11.608;2023-12-20T12:21:26;6.80;99.70
11399;DHT22;5755;48.116;11.608;2023-12-20T12:23:53;6.70;99.90
11399;DHT22;5755;48.116;11.608;2023-12-20T12:26:19;6.70;99.70
11399;DHT22;5755;48.116;11.608;2023-12-20T12:28:46;6.70;99.20
11399;DHT22;5755;48.116;11.608;2023-12-20T12:31:14;6.60;99.50
11399;DHT22;5755;48.116;11.608;2023-12-20T12:33:42;6.50;99.70
11399;DHT22;5755;48.116;11.608;2023-12-20T12:36:10;6.60;99.20
11399;DHT22;5755;48.116;11.608;2023-12-20T12:38:38;6.50;99.50
11399;DHT22;5755;48.116;11.608;2023-12-20T12:41:05;6.50;99.90
11399;DHT22;5755;48.116;11.608;2023-12-20T12:43:32;6.40;99.90
11399;DHT22;5755;48.116;11.608;2023-12-20T12:46:00;6.40;99.90
11399;DHT22;5755;48.116;11.608;2023-12-20T12:48:27;6.40;99.90
11399;DHT22;5755;48.116;11.608;2023-12-20T12:50:54;6.30;99.90
11399;DHT22;5755;48.116;11.608;2023-12-20T12:53:24;6.30;99.90
11399;DHT22;5755;48.116;11.608;2023-12-20T12:55:53;6.30;99.90
11399;DHT22;5755;48.116;11.608;2023-12-20T12:58:21;6.20;99.90
11399;DHT22;5755;48.116;11.608;2023-12-20T13:00:48;6.20;99.90
11399;DHT22;5755;48.116;11.608;2023-12-20T13:03:14;6.20;99.90
11399;DHT22;5755;48.116;11.608;2023-12-20T13:05:42;6.30;99.90
11399;DHT22;5755;48.116;11.608;2023-12-20T13:08:09;6.30;99.90
11399;DHT22;5755;48.116;11.608;2023-12-20T13:10:37;6.30;99.90
11399;DHT22;5755;48.116;11.608;2023-12-20T13:13:05;6.30;99.90
11399;DHT22;5755;48.116;11.608;2023-12-20T13:15:32;6.20;99.90
11399;DHT22;5755;48.116;11.608;2023-12-20T13:17:59;6.20;99.90
11399;DHT22;5755;48.116;11.608;2023-12-20T13:20:26;6.20;99.90
11399;DHT22;5755;48.116;11.608;2023-12-20T13:22:53;6.10;99.90
11399;DHT22;5755;48.116;11.608;2023-12-20T13:25:20;6.10;99.90
11399;DHT22;5755;48.116;11.608;2023-12-20T13:27:47;5.90;99.90
11399;DHT22;5755;48.116;11.608;2023-12-20T13:30:16;5.70;99.90
11399;DHT22;5755;48.116;11.608;2023-12-20T13:32:43;5.50;99.90
11399;DHT22;5755;48.116;11.608;2023-12-20T13:35:09;5.50;99.90
11399;DHT22;5755;48.116;11.608;2023-12-20T13:37:36;5.40;99.90
11399;DHT22;5755;48.116;11.608;2023-12-20T13:40:04;5.40;99.90
11399;DHT22;5755;48.116;11.608;2023-12-20T13:42:31;5.50;99.90
11399;DHT22;5755;48.116;11.608;2023-12-20T13:44:58;5.50;99.90
11399;DHT22;5755;48.116;11.608;2023-12-20T13:47:26;5.40;99.60
11399;DHT22;5755;48.116;11.608;2023-12-20T13:49:53;5.40;99.50
11399;DHT22;5755;48.116;11.608;2023-12-20T13:52:21;5.30;99.40
11399;DHT22;5755;48.116;11.608;2023-12-20T13:54:48;5.20;99.90
11399;DHT22;5755;48.116;11.608;2023-12-20T13:57:15;5.30;99.80
11399;DHT22;5755;48.116;11.608;2023-12-20T13:59:42;5.30;99.80
11399;DHT22;5755;48.116;11.608;2023-12-20T14:02:09;5.40;99.50
11399;DHT22;5755;48.116;11.608;2023-12-20T14:04:37;5.40;99.20
11399;DHT22;5755;48.116;11.608;2023-12-20T14:07:06;5.40;98.80
11399;DHT22;5755;48.116;11.608;2023-12-20T14:09:33;5.40;98.50
11399;DHT22;5755;48.116;11.608;2023-12-20T14:12:00;5.40;98.80
11399;DHT22;5755;48.116;11.608;2023-12-20T14:14:26;5.40;98.50
11399;DHT22;5755;48.116;11.608;2023-12-20T14:16:53;5.30;98.20
11399;DHT22;5755;48.116;11.608;2023-12-20T14:19:19;5.20;98.70
11399;DHT22;5755;48.116;11.608;2023-12-20T14:21:48;5.20;98.80
11399;DHT22;5755;48.116;11.608;2023-12-20T14:24:14;5.20;98.40
11399;DHT22;5755;48.116;11.608;2023-12-20T14:26:41;5.30;98.80
11399;DHT22;5755;48.116;11.608;2023-12-20T14:29:08;5.30;98.30
11399;DHT22;5755;48.116;11.608;2023-12-20T14:31:35;5.40;98.00
11399;DHT22;5755;48.116;11.608;2023-12-20T14:34:04;5.40;97.80
11399;DHT22;5755;48.116;11.608;2023-12-20T14:36:32;5.40;97.60
11399;DHT22;5755;48.116;11.608;2023-12-20T14:39:00;5.30;97.70
11399;DHT22;5755;48.116;11.608;2023-12-20T14:41:28;5.30;98.00
11399;DHT22;5755;48.116;11.608;2023-12-20T14:43:55;5.30;97.70
11399;DHT22;5755;48.116;11.608;2023-12-20T14:46:21;5.30;97.70
11399;DHT22;5755;48.116;11.608;2023-12-20T14:48:48;5.20;97.70
11399;DHT22;5755;48.116;11.608;2023-12-20T14:51:15;5.10;98.20
11399;DHT22;5755;48.116;11.608;2023-12-20T14:53:42;5.10;98.50
11399;DHT22;5755;48.116;11.608;2023-12-20T14:56:10;5.20;98.30
11399;DHT22;5755;48.116;11.608;2023-12-20T14:58:37;5.20;98.20
11399;DHT22;5755;48.116;11.608;2023-12-20T15:01:04;5.20;97.90
11399;DHT22;5755;48.116;11.608;2023-12-20T15:03:34;5.10;98.30
11399;DHT22;5755;48.116;11.608;2023-12-20T15:06:00;5.10;98.10
11399;DHT22;5755;48.116;11.608;2023-12-20T15:08:27;5.00;98.50
11399;DHT22;5755;48.116;11.608;2023-12-20T15:10:54;5.10;98.60
11399;DHT22;5755;48.116;11.608;2023-12-20T15:13:22;5.10;98.50
11399;DHT22;5755;48.116;11.608;2023-12-20T15:15:49;5.10;98.40
11399;DHT22;5755;48.116;11.608;2023-12-20T15:18:16;5.00;97.90
11399;DHT22;5755;48.116;11.608;2023-12-20T15:20:43;5.00;98.10
11399;DHT22;5755;48.116;11.608;2023-12-20T15:23:10;5.00;97.70
11399;DHT22;5755;48.116;11.608;2023-12-20T15:25:37;5.00;97.70
11399;DHT22;5755;48.116;11.608;2023-12-20T15:28:04;5.10;97.00
11399;DHT22;5755;48.116;11.608;2023-12-20T15:30:33;5.10;96.20
11399;DHT22;5755;48.116;11.608;2023-12-20T15:33:01;5.10;96.10
11399;DHT22;5755;48.116;11.608;2023-12-20T15:35:28;5.10;95.80
11399;DHT22;5755;48.116;11.608;2023-12-20T15:37:56;5.10;95.80
11399;DHT22;5755;48.116;11.608;2023-12-20T15:40:24;5.10;95.90
11399;DHT22;5755;48.116;11.608;2023-12-20T15:42:50;5.20;95.70
11399;DHT22;5755;48.116;11.608;2023-12-20T15:45:17;5.10;95.60
11399;DHT22;5755;48.116;11.608;2023-12-20T15:47:45;5.00;95.50